KLRJ

Le Mars Municipal Airport

Le Mars, Iowa, USA
METAR KLRJ 181455Z AUTO 18008KT 10SM CLR M07/M09 A2999 RMK AO2
Observed Flight Rules
Jan-18 @ 14:55 UTC (24 minutes ago) Visual Flight Rules
Wind Visibility Clouds
180° at 8 knots 10 miles
  • Clear skies
Temperatures Readings
Current -7°C / 19°F
Dewpoint -9°C / 16°F
Humidity 86%
Altimeter 29.99" Hg
Pressure 1016 hPa
Elevation 365
METAR KLRJ 181455Z AUTO 18008KT 10SM CLR M07/M09 A2999 RMK AO2
Observed Flight Rules
Jan-18 @ 14:55 UTC
(24 minutes ago)
VFR
Wind Visibility
180° at 8 knots 10 miles
Clouds
  • Clear skies
Temperature Dewpoint
-7°C / 19°F -9°C / 16°F
Humidity Altimeter Pressure
86% 29.99" Hg 1016 hPa